createdAt,value
2019-03-12T00:00:34.310Z,1.13
2019-03-12T00:03:02.482Z,1.20
2019-03-12T00:05:30.734Z,1.00
2019-03-12T00:07:58.879Z,1.27
2019-03-12T00:10:37.023Z,1.10
2019-03-12T00:13:05.187Z,1.50
2019-03-12T00:15:33.416Z,0.97
2019-03-12T00:18:01.614Z,0.93
2019-03-12T00:20:29.801Z,1.17
2019-03-12T00:22:57.939Z,1.40
2019-03-12T00:25:26.138Z,1.23
2019-03-12T00:27:54.328Z,1.30
2019-03-12T00:30:22.487Z,1.03
2019-03-12T00:32:51.025Z,1.30
2019-03-12T00:35:19.168Z,1.20
2019-03-12T00:37:47.316Z,1.17
2019-03-12T00:40:15.460Z,1.10
2019-03-12T00:42:43.619Z,1.40
2019-03-12T00:45:11.924Z,1.20
2019-03-12T00:47:40.118Z,1.13
2019-03-12T00:50:09.420Z,1.37
2019-03-12T00:52:37.571Z,1.00
2019-03-12T00:55:06.612Z,1.37
2019-03-12T00:57:34.766Z,1.17
2019-03-12T01:00:04.593Z,1.23
2019-03-12T01:02:42.814Z,1.10
2019-03-12T01:05:11.033Z,1.67
2019-03-12T01:07:39.170Z,1.07
2019-03-12T01:10:08.864Z,1.23
2019-03-12T01:12:37.011Z,1.17
2019-03-12T01:15:06.349Z,1.00
2019-03-12T01:17:34.501Z,1.17
2019-03-12T01:20:02.839Z,1.13
2019-03-12T01:22:31.060Z,1.00
2019-03-12T01:24:59.214Z,0.90
2019-03-12T01:27:27.361Z,1.27
2019-03-12T01:29:55.526Z,1.00
2019-03-12T01:32:23.688Z,1.00
2019-03-12T01:34:51.931Z,1.10
2019-03-12T01:37:20.073Z,1.10
2019-03-12T01:39:48.208Z,1.10
2019-03-12T01:42:35.806Z,1.13
2019-03-12T01:45:04.144Z,1.20
2019-03-12T01:47:32.279Z,0.97
2019-03-12T01:50:00.593Z,1.07
2019-03-12T01:52:28.765Z,1.07
2019-03-12T01:54:56.925Z,1.10
2019-03-12T01:57:25.060Z,1.27
2019-03-12T01:59:53.219Z,1.20
2019-03-12T02:02:21.355Z,1.00
2019-03-12T02:04:49.531Z,1.13
2019-03-12T02:07:17.705Z,1.10
2019-03-12T02:09:45.842Z,1.20
2019-03-12T02:12:14.010Z,1.17
2019-03-12T02:14:42.185Z,1.20
2019-03-12T02:17:10.342Z,1.03
2019-03-12T02:19:38.519Z,1.20
2019-03-12T02:22:06.681Z,1.30
2019-03-12T02:24:34.904Z,1.30
2019-03-12T02:27:03.101Z,1.10
2019-03-12T02:29:31.226Z,1.13
2019-03-12T02:31:59.494Z,1.00
2019-03-12T02:34:27.693Z,1.00
2019-03-12T02:36:55.869Z,0.80
2019-03-12T02:39:24.028Z,0.90
2019-03-12T02:41:52.181Z,1.20
2019-03-12T02:44:20.364Z,1.00
2019-03-12T02:46:48.530Z,1.10
2019-03-12T02:49:16.676Z,1.10
2019-03-12T02:51:44.984Z,1.10
2019-03-12T02:54:13.209Z,0.97
2019-03-12T02:56:41.357Z,0.90
2019-03-12T02:59:09.543Z,1.10
2019-03-12T03:01:37.812Z,0.77
2019-03-12T03:04:06.029Z,1.10
2019-03-12T03:06:35.894Z,1.20
2019-03-12T03:09:06.002Z,1.00
2019-03-12T03:11:34.166Z,1.20
2019-03-12T03:14:02.340Z,1.00
2019-03-12T03:16:30.590Z,1.23
2019-03-12T03:18:58.778Z,1.20
2019-03-12T03:21:27.237Z,1.03
2019-03-12T03:23:55.418Z,1.03
2019-03-12T03:26:23.559Z,0.97
2019-03-12T03:28:51.772Z,1.27
2019-03-12T03:31:19.969Z,1.00
2019-03-12T03:33:48.182Z,1.20
2019-03-12T03:36:16.427Z,1.20
2019-03-12T03:38:44.610Z,1.03
2019-03-12T03:41:12.757Z,0.97
2019-03-12T03:43:40.900Z,0.87
2019-03-12T03:46:09.068Z,1.07
2019-03-12T03:48:37.297Z,1.10
2019-03-12T03:51:05.459Z,1.30
2019-03-12T03:53:33.624Z,1.10
2019-03-12T03:56:01.880Z,1.50
2019-03-12T03:58:30.084Z,1.00
2019-03-12T04:00:58.327Z,0.97
2019-03-12T04:03:26.505Z,1.10
2019-03-12T04:05:54.700Z,1.37
2019-03-12T04:08:22.869Z,1.10
2019-03-12T04:10:56.129Z,1.30
2019-03-12T04:13:24.276Z,1.00
2019-03-12T04:15:52.415Z,1.33
2019-03-12T04:18:20.688Z,0.80
2019-03-12T04:20:49.006Z,0.97
2019-03-12T04:23:17.169Z,1.30
2019-03-12T04:25:45.333Z,1.00
2019-03-12T04:28:13.568Z,1.20
2019-03-12T04:31:01.178Z,1.27
2019-03-12T04:33:49.120Z,1.00
2019-03-12T04:36:17.252Z,1.00
2019-03-12T04:38:45.384Z,1.20
2019-03-12T04:41:13.568Z,1.07
2019-03-12T04:43:41.706Z,1.70
2019-03-12T04:46:09.840Z,6.40
2019-03-12T04:48:38.004Z,1.87
2019-03-12T04:51:11.344Z,6.10
2019-03-12T04:53:39.514Z,1.40
2019-03-12T04:56:07.649Z,1.80
2019-03-12T04:58:35.777Z,1.63
2019-03-12T05:01:04.136Z,1.57
2019-03-12T05:03:32.328Z,2.10
2019-03-12T05:06:00.463Z,1.60
2019-03-12T05:08:28.599Z,1.50
2019-03-12T05:10:56.821Z,1.30
2019-03-12T05:13:24.977Z,1.40
2019-03-12T05:15:53.132Z,1.23
2019-03-12T05:18:21.966Z,1.20
2019-03-12T05:20:50.224Z,1.30
2019-03-12T05:23:18.498Z,1.43
2019-03-12T05:25:46.668Z,1.50
2019-03-12T05:28:14.833Z,1.40
2019-03-12T05:30:42.981Z,1.70
2019-03-12T05:33:11.128Z,1.30
2019-03-12T05:35:39.302Z,1.80
2019-03-12T05:38:07.500Z,1.50
2019-03-12T05:40:35.694Z,1.87
2019-03-12T05:43:03.945Z,1.90
2019-03-12T05:45:32.096Z,2.70
2019-03-12T05:48:00.224Z,2.80
2019-03-12T05:50:28.421Z,3.20
2019-03-12T05:53:07.288Z,2.03
2019-03-12T05:55:35.829Z,1.60
2019-03-12T05:58:03.989Z,3.03
2019-03-12T06:00:32.148Z,3.27
2019-03-12T06:03:00.292Z,3.63
2019-03-12T06:05:28.436Z,3.60
2019-03-12T06:07:56.562Z,3.40
2019-03-12T06:10:24.736Z,3.83
2019-03-12T06:12:52.872Z,3.13
2019-03-12T06:15:21.093Z,2.83
2019-03-12T06:17:49.350Z,2.90
2019-03-12T06:20:17.630Z,2.27
2019-03-12T06:22:45.785Z,2.70
2019-03-12T06:25:14.102Z,2.40
2019-03-12T06:27:42.336Z,2.40
2019-03-12T06:30:20.142Z,3.20
2019-03-12T06:32:50.015Z,2.53
2019-03-12T06:35:19.845Z,1.80
2019-03-12T06:37:52.626Z,1.63
2019-03-12T06:40:38.770Z,2.30
2019-03-12T06:43:14.642Z,1.80
2019-03-12T06:45:44.452Z,1.50
2019-03-12T06:48:14.240Z,1.53
2019-03-12T06:50:44.024Z,1.67
2019-03-12T06:53:30.115Z,1.70
2019-03-12T06:55:59.912Z,2.07
2019-03-12T06:58:32.399Z,1.43
2019-03-12T07:01:02.261Z,1.60
2019-03-12T07:03:48.367Z,1.30
2019-03-12T07:06:21.124Z,1.33
2019-03-12T07:09:06.244Z,1.30
2019-03-12T07:11:54.096Z,1.87
2019-03-12T07:14:26.968Z,2.10
2019-03-12T07:17:05.966Z,1.63
2019-03-12T07:19:44.412Z,1.83
2019-03-12T07:22:30.594Z,1.80
2019-03-12T07:25:16.887Z,1.83
2019-03-12T07:27:58.758Z,1.63
2019-03-12T07:30:28.577Z,2.60
2019-03-12T07:33:03.829Z,1.80
2019-03-12T07:35:50.159Z,1.60
2019-03-12T07:38:23.004Z,1.23
2019-03-12T07:40:58.918Z,1.60
2019-03-12T07:43:31.876Z,1.30
2019-03-12T07:46:01.682Z,1.40
2019-03-12T07:48:40.402Z,1.40
2019-03-12T07:51:25.176Z,1.50
2019-03-12T07:54:11.686Z,1.40
2019-03-12T07:56:41.482Z,1.50
2019-03-12T07:59:20.366Z,1.50
2019-03-12T08:01:58.255Z,1.10
2019-03-12T08:04:28.133Z,1.30
2019-03-12T08:07:06.952Z,1.50
2019-03-12T08:09:48.598Z,1.63
2019-03-12T08:12:26.077Z,2.20
2019-03-12T08:15:05.024Z,1.30
2019-03-12T08:17:41.172Z,1.03
2019-03-12T08:20:13.792Z,1.20
2019-03-12T08:22:43.789Z,1.20
2019-03-12T08:25:19.594Z,1.10
2019-03-12T08:28:01.203Z,0.80
2019-03-12T08:30:31.072Z,1.00
2019-03-12T08:33:03.712Z,1.00
2019-03-12T08:35:33.525Z,1.10
2019-03-12T08:38:08.764Z,1.40
2019-03-12T08:40:51.738Z,1.20
2019-03-12T08:43:19.168Z,1.10
2019-03-12T08:45:54.765Z,0.93
2019-03-12T08:48:27.569Z,1.10
2019-03-12T08:51:15.705Z,1.03
2019-03-12T08:53:48.383Z,0.83
2019-03-12T08:56:26.824Z,1.20
2019-03-12T08:59:03.039Z,1.00
2019-03-12T09:01:38.882Z,1.10
2019-03-12T09:04:08.780Z,1.00
2019-03-12T09:06:44.483Z,1.23
2019-03-12T09:09:17.357Z,1.10
2019-03-12T09:11:49.887Z,1.10
2019-03-12T09:14:31.838Z,1.40
2019-03-12T09:17:01.730Z,1.20
2019-03-12T09:19:34.392Z,1.20
2019-03-12T09:22:13.005Z,1.00
2019-03-12T09:24:59.117Z,0.90
2019-03-12T09:27:40.813Z,0.93
2019-03-12T09:30:18.036Z,1.20
2019-03-12T09:32:53.876Z,1.20
2019-03-12T09:35:23.938Z,1.00
2019-03-12T09:37:53.743Z,0.90
2019-03-12T09:40:23.568Z,0.93
2019-03-12T09:43:11.556Z,1.10
2019-03-12T09:45:57.746Z,1.00
2019-03-12T09:48:27.888Z,0.90
2019-03-12T09:50:57.902Z,0.90
2019-03-12T09:53:27.796Z,0.93
2019-03-12T09:55:57.680Z,0.90
2019-03-12T09:58:30.238Z,0.97
2019-03-12T10:01:00.163Z,1.10
2019-03-12T10:03:35.760Z,1.00
2019-03-12T10:06:20.231Z,0.90
2019-03-12T10:08:59.092Z,1.00
2019-03-12T10:11:32.060Z,1.00
2019-03-12T10:14:07.845Z,0.90
2019-03-12T10:16:56.049Z,1.07
2019-03-12T10:19:44.174Z,0.97
2019-03-12T10:22:30.374Z,0.80
2019-03-12T10:25:12.430Z,1.00
2019-03-12T10:27:42.281Z,1.40
2019-03-12T10:30:27.918Z,1.00
2019-03-12T10:32:57.825Z,1.00
2019-03-12T10:35:43.865Z,1.27
2019-03-12T10:38:34.924Z,0.83
2019-03-12T10:41:04.712Z,0.80
2019-03-12T10:43:34.056Z,0.87
2019-03-12T10:46:03.927Z,0.80
2019-03-12T10:48:32.178Z,0.93
2019-03-12T10:51:12.962Z,0.80
2019-03-12T10:53:40.289Z,0.90
2019-03-12T10:56:08.501Z,0.80
2019-03-12T10:58:36.667Z,0.80
2019-03-12T11:01:04.900Z,1.10
2019-03-12T11:03:33.080Z,0.90
2019-03-12T11:06:01.225Z,1.20
2019-03-12T11:08:29.384Z,0.60
2019-03-12T11:10:57.551Z,0.70
2019-03-12T11:13:25.706Z,0.70
2019-03-12T11:15:53.900Z,0.80
2019-03-12T11:18:22.055Z,0.80
2019-03-12T11:20:50.223Z,0.60
2019-03-12T11:23:18.377Z,0.70
2019-03-12T11:25:46.508Z,0.90
2019-03-12T11:28:14.812Z,0.80
2019-03-12T11:30:43.318Z,0.80
2019-03-12T11:33:11.493Z,0.70
2019-03-12T11:35:39.917Z,0.70
2019-03-12T11:38:08.263Z,0.60
2019-03-12T11:40:36.492Z,0.80
2019-03-12T11:43:04.685Z,0.70
2019-03-12T11:45:36.683Z,0.80
2019-03-12T11:48:02.821Z,0.70
2019-03-12T11:50:31.110Z,0.60
2019-03-12T11:53:00.583Z,0.70
2019-03-12T11:55:29.427Z,0.70
2019-03-12T11:57:57.661Z,0.70
2019-03-12T12:00:39.484Z,0.80
2019-03-12T12:03:08.188Z,0.90
2019-03-12T12:05:36.355Z,0.70
2019-03-12T12:08:04.592Z,0.83
2019-03-12T12:10:32.828Z,1.17
2019-03-12T12:13:00.977Z,0.60
2019-03-12T12:15:29.313Z,0.80
2019-03-12T12:17:57.538Z,0.80
2019-03-12T12:20:30.136Z,0.80
2019-03-12T12:22:55.674Z,0.50
2019-03-12T12:25:23.840Z,1.10
2019-03-12T12:27:52.019Z,1.20
2019-03-12T12:30:20.649Z,1.23
2019-03-12T12:32:48.895Z,1.40
2019-03-12T12:35:17.380Z,1.10
2019-03-12T12:37:45.550Z,1.20
2019-03-12T12:40:20.609Z,1.40
2019-03-12T12:42:48.867Z,1.30
2019-03-12T12:45:18.909Z,1.40
2019-03-12T12:47:47.151Z,1.20
2019-03-12T12:50:15.675Z,1.47
2019-03-12T12:52:43.928Z,1.00
2019-03-12T12:55:13.083Z,1.53
2019-03-12T12:57:41.232Z,1.00
2019-03-12T13:00:22.100Z,1.23
2019-03-12T13:02:50.334Z,1.10
2019-03-12T13:05:18.653Z,1.10
2019-03-12T13:07:46.906Z,1.00
2019-03-12T13:10:19.601Z,1.20
2019-03-12T13:12:47.855Z,1.20
2019-03-12T13:15:16.099Z,1.03
2019-03-12T13:17:44.340Z,0.90
2019-03-12T13:20:12.773Z,1.10
2019-03-12T13:22:41.021Z,1.10
2019-03-12T13:25:10.720Z,1.00
2019-03-12T13:27:42.633Z,1.30
2019-03-12T13:30:16.032Z,1.00
2019-03-12T13:32:44.200Z,1.20
2019-03-12T13:35:13.968Z,1.10
2019-03-12T13:37:42.184Z,0.90
2019-03-12T13:40:14.541Z,0.90
2019-03-12T13:42:42.720Z,1.10
2019-03-12T13:45:12.397Z,1.07
2019-03-12T13:47:40.572Z,1.10
2019-03-12T13:50:09.911Z,1.20
2019-03-12T13:52:38.248Z,1.17
2019-03-12T13:55:07.823Z,1.10
2019-03-12T13:57:36.053Z,0.97
2019-03-12T14:00:11.685Z,1.00
2019-03-12T14:02:40.041Z,1.20
2019-03-12T14:05:09.073Z,1.20
2019-03-12T14:07:37.317Z,1.30
2019-03-12T14:10:07.024Z,1.20
2019-03-12T14:12:35.268Z,1.13
2019-03-12T14:15:04.825Z,1.43
2019-03-12T14:17:33.032Z,1.10
2019-03-12T14:20:02.716Z,0.90
2019-03-12T14:22:30.881Z,1.20
2019-03-12T14:24:59.062Z,1.20
2019-03-12T14:27:27.213Z,1.20
2019-03-12T14:29:55.458Z,1.00
2019-03-12T14:32:23.685Z,1.00
2019-03-12T14:34:51.923Z,1.27
2019-03-12T14:37:20.120Z,1.00
2019-03-12T14:39:48.317Z,1.10
2019-03-12T14:42:16.571Z,1.20
2019-03-12T14:44:44.884Z,1.17
2019-03-12T14:47:13.033Z,1.10
2019-03-12T14:49:41.282Z,1.07
2019-03-12T14:52:14.615Z,1.20
2019-03-12T14:54:42.770Z,1.20
2019-03-12T14:57:10.946Z,1.30
2019-03-12T14:59:39.173Z,1.37
2019-03-12T15:02:07.308Z,1.10
2019-03-12T15:04:35.471Z,1.00
2019-03-12T15:07:03.689Z,1.27
2019-03-12T15:09:31.933Z,1.10
2019-03-12T15:12:00.132Z,1.20
2019-03-12T15:14:28.364Z,1.47
2019-03-12T15:16:56.541Z,1.77
2019-03-12T15:19:24.696Z,1.20
2019-03-12T15:22:12.208Z,1.57
2019-03-12T15:24:40.354Z,1.53
2019-03-12T15:27:08.504Z,1.50
2019-03-12T15:29:36.689Z,1.30
2019-03-12T15:32:04.895Z,1.53
2019-03-12T15:34:33.091Z,1.57
2019-03-12T15:37:01.285Z,1.90
2019-03-12T15:39:29.446Z,1.90
2019-03-12T15:42:12.539Z,1.63
2019-03-12T15:44:40.733Z,2.00
2019-03-12T15:47:09.178Z,2.40
2019-03-12T15:49:37.899Z,1.50
2019-03-12T15:52:07.300Z,1.40
2019-03-12T15:54:35.561Z,1.23
2019-03-12T15:57:03.786Z,1.50
2019-03-12T15:59:31.948Z,1.60
2019-03-12T16:02:00.120Z,1.43
2019-03-12T16:04:28.541Z,1.40
2019-03-12T16:07:01.706Z,1.83
2019-03-12T16:09:26.672Z,1.57
2019-03-12T16:11:55.055Z,1.43
2019-03-12T16:14:23.171Z,1.40
2019-03-12T16:16:51.373Z,1.43
2019-03-12T16:19:19.601Z,2.30
2019-03-12T16:21:47.828Z,1.90
2019-03-12T16:24:16.011Z,1.80
2019-03-12T16:26:44.424Z,1.77
2019-03-12T16:29:12.560Z,1.60
2019-03-12T16:31:40.709Z,2.03
2019-03-12T16:34:08.862Z,2.67
2019-03-12T16:36:37.002Z,3.17
2019-03-12T16:39:06.100Z,2.60
2019-03-12T16:41:34.272Z,2.90
2019-03-12T16:44:02.441Z,3.13
2019-03-12T16:46:30.621Z,3.40
2019-03-12T16:48:58.773Z,2.90
2019-03-12T16:51:27.192Z,3.93
2019-03-12T16:53:55.349Z,3.37
2019-03-12T16:56:23.674Z,3.60
2019-03-12T16:58:52.248Z,3.10
2019-03-12T17:01:20.576Z,2.90
2019-03-12T17:03:48.831Z,2.40
2019-03-12T17:06:17.044Z,2.80
2019-03-12T17:08:45.227Z,2.43
2019-03-12T17:11:13.465Z,2.00
2019-03-12T17:13:41.716Z,2.30
2019-03-12T17:16:09.943Z,2.70
2019-03-12T17:18:38.204Z,2.10
2019-03-12T17:21:06.551Z,1.73
2019-03-12T17:23:34.780Z,2.07
2019-03-12T17:26:02.953Z,1.90
2019-03-12T17:28:31.199Z,2.00
2019-03-12T17:31:29.664Z,2.00
2019-03-12T17:33:57.806Z,2.00
2019-03-12T17:36:28.387Z,3.07
2019-03-12T17:38:56.299Z,3.10
2019-03-12T17:41:24.508Z,2.13
2019-03-12T17:43:53.018Z,1.93
2019-03-12T17:46:21.188Z,2.30
2019-03-12T17:48:49.468Z,2.33
2019-03-12T17:51:17.685Z,2.40
2019-03-12T17:53:45.861Z,2.70
2019-03-12T17:56:14.064Z,2.47
2019-03-12T17:58:42.313Z,5.80
2019-03-12T18:01:10.546Z,3.30
2019-03-12T18:03:38.806Z,2.83
2019-03-12T18:06:07.063Z,3.00
2019-03-12T18:08:35.389Z,3.00
2019-03-12T18:11:03.662Z,3.13
2019-03-12T18:13:31.895Z,3.60
2019-03-12T18:16:00.168Z,3.80
2019-03-12T18:18:28.449Z,3.37
2019-03-12T18:20:56.648Z,4.73
2019-03-12T18:23:24.868Z,2.77
2019-03-12T18:25:53.117Z,3.00
2019-03-12T18:28:21.325Z,3.10
2019-03-12T18:30:49.531Z,3.53
2019-03-12T18:33:17.755Z,4.43
2019-03-12T18:35:45.953Z,3.87
2019-03-12T18:38:14.124Z,2.80
2019-03-12T18:40:47.367Z,2.87
2019-03-12T18:43:15.620Z,3.07
2019-03-12T18:45:43.781Z,2.40
2019-03-12T18:48:11.928Z,2.13
2019-03-12T18:50:40.115Z,2.10
2019-03-12T18:53:08.474Z,2.27
2019-03-12T18:55:40.735Z,2.40
2019-03-12T18:58:09.587Z,3.23
2019-03-12T19:00:39.288Z,3.57
2019-03-12T19:03:07.432Z,4.00
2019-03-12T19:05:35.874Z,4.17
2019-03-12T19:08:04.143Z,3.73
2019-03-12T19:10:32.413Z,3.50
2019-03-12T19:13:00.638Z,3.97
2019-03-12T19:15:28.865Z,4.93
2019-03-12T19:17:57.025Z,4.53
2019-03-12T19:20:25.365Z,4.23
2019-03-12T19:22:53.572Z,3.63
2019-03-12T19:25:22.995Z,4.70
2019-03-12T19:27:59.914Z,4.57
2019-03-12T19:30:21.238Z,3.87
2019-03-12T19:32:54.264Z,2.10
2019-03-12T19:35:24.110Z,2.77
2019-03-12T19:37:52.416Z,1.80
2019-03-12T19:40:22.209Z,1.10
2019-03-12T19:42:50.444Z,0.60
2019-03-12T19:45:18.792Z,0.90
2019-03-12T19:47:47.121Z,0.80
2019-03-12T19:50:16.869Z,1.70
2019-03-12T19:52:45.121Z,2.57
2019-03-12T19:55:17.942Z,1.63
2019-03-12T19:57:46.098Z,1.60
2019-03-12T20:00:15.786Z,1.10
2019-03-12T20:02:45.223Z,1.00
2019-03-12T20:05:13.472Z,1.00
2019-03-12T20:07:41.669Z,1.00
2019-03-12T20:10:11.428Z,0.80
2019-03-12T20:12:57.706Z,0.90
2019-03-12T20:15:43.860Z,0.63
2019-03-12T20:18:16.224Z,0.80
2019-03-12T20:21:02.516Z,0.70
2019-03-12T20:23:50.453Z,0.90
2019-03-12T20:26:25.888Z,0.80
2019-03-12T20:29:01.450Z,0.70
2019-03-12T20:31:31.161Z,0.70
2019-03-12T20:34:00.938Z,0.80
2019-03-12T20:36:39.468Z,0.80
2019-03-12T20:39:25.689Z,0.60
2019-03-12T20:42:13.643Z,0.80
2019-03-12T20:44:55.657Z,0.70
2019-03-12T20:47:43.528Z,0.90
2019-03-12T20:50:16.227Z,0.80
2019-03-12T20:53:01.012Z,0.70
2019-03-12T20:55:33.704Z,0.80
2019-03-12T20:58:20.314Z,0.80
2019-03-12T21:01:02.494Z,0.67
2019-03-12T21:03:37.913Z,0.90
2019-03-12T21:06:22.868Z,0.60
2019-03-12T21:09:10.896Z,0.87
2019-03-12T21:12:02.361Z,0.90
2019-03-12T21:14:32.077Z,0.90
2019-03-12T21:17:13.898Z,0.80
2019-03-12T21:19:46.268Z,0.80
2019-03-12T21:22:34.306Z,0.70
2019-03-12T21:25:07.448Z,0.63
2019-03-12T21:27:37.199Z,0.70
2019-03-12T21:30:04.937Z,0.80
2019-03-12T21:33:14.856Z,0.70
2019-03-12T21:35:33.280Z,0.80
2019-03-12T21:38:01.435Z,0.70
2019-03-12T21:40:29.636Z,0.70
2019-03-12T21:43:08.026Z,0.73
2019-03-12T21:45:36.609Z,0.73
2019-03-12T21:48:04.832Z,0.77
2019-03-12T21:50:33.052Z,0.80
2019-03-12T21:53:01.228Z,0.80
2019-03-12T21:55:29.364Z,0.70
2019-03-12T21:57:57.604Z,0.60
2019-03-12T22:00:25.845Z,0.70
2019-03-12T22:02:59.081Z,0.90
2019-03-12T22:05:27.231Z,0.70
2019-03-12T22:07:55.405Z,0.87
2019-03-12T22:10:23.589Z,0.80
2019-03-12T22:12:51.961Z,0.80
2019-03-12T22:15:20.117Z,0.93
2019-03-12T22:17:48.273Z,0.70
2019-03-12T22:20:16.520Z,1.00
2019-03-12T22:23:07.261Z,0.77
2019-03-12T22:25:35.449Z,0.80
2019-03-12T22:28:03.772Z,0.70
2019-03-12T22:30:31.940Z,0.73
2019-03-12T22:33:00.301Z,0.90
2019-03-12T22:35:28.464Z,1.53
2019-03-12T22:37:56.915Z,0.80
2019-03-12T22:40:25.166Z,0.80
2019-03-12T22:42:53.438Z,0.60
2019-03-12T22:45:21.584Z,0.70
2019-03-12T22:47:49.840Z,0.90
2019-03-12T22:50:18.017Z,0.80
2019-03-12T22:52:46.183Z,0.77
2019-03-12T22:55:14.362Z,1.17
2019-03-12T22:57:42.539Z,0.73
2019-03-12T23:00:20.632Z,0.80
2019-03-12T23:02:49.024Z,1.10
2019-03-12T23:05:17.225Z,0.90
2019-03-12T23:07:45.392Z,0.80
2019-03-12T23:10:14.691Z,0.80
2019-03-12T23:12:42.917Z,0.90
2019-03-12T23:15:20.086Z,0.73
2019-03-12T23:17:48.236Z,0.70
2019-03-12T23:20:17.388Z,0.70
2019-03-12T23:22:45.636Z,0.80
2019-03-12T23:25:13.880Z,0.83
2019-03-12T23:27:42.047Z,0.80
2019-03-12T23:30:14.556Z,0.80
2019-03-12T23:32:42.773Z,0.77
2019-03-12T23:35:11.004Z,0.90
2019-03-12T23:37:39.242Z,0.90
2019-03-12T23:40:11.969Z,0.70
2019-03-12T23:45:49.972Z,0.80
2019-03-12T23:48:18.120Z,1.03
2019-03-12T23:50:46.291Z,0.73
2019-03-12T23:53:14.464Z,0.80
2019-03-12T23:55:42.627Z,0.97
2019-03-12T23:58:10.877Z,1.20
